Time;durP1;ratioP1;P1;durP2;ratioP2;P2;SDS_P1;SDS_P2;PMS_P1;PMS_P2;Temp;Humidity;BMP_temperature;BMP_pressure;BME280_temperature;BME280_humidity;BME280_pressure;Samples;Min_cycle;Max_cycle;Signal;HPM_P1;HPM_P2
2023/01/24 00:01:02;;;;;;;20.02;18.13;;;;;;;;;;4987603;28;20491;-86
2023/01/24 00:03:28;;;;;;;20.42;18.42;;;;;;;;;;4993410;28;20435;-85
2023/01/24 00:05:54;;;;;;;19.73;17.75;;;;;;;;;;4974836;28;20446;-86
2023/01/24 00:08:22;;;;;;;17.80;15.90;;;;;;;;;;4976771;28;20217;-86
2023/01/24 00:10:48;;;;;;;19.85;17.85;;;;;;;;;;4978251;28;20433;-86
2023/01/24 00:13:15;;;;;;;21.75;19.65;;;;;;;;;;4969095;28;20515;-85
2023/01/24 00:15:41;;;;;;;21.43;19.33;;;;;;;;;;5002582;28;20436;-85
2023/01/24 00:18:07;;;;;;;20.20;18.30;;;;;;;;;;4984007;28;20434;-85
2023/01/24 00:20:33;;;;;;;20.00;18.10;;;;;;;;;;4984405;28;20543;-85
2023/01/24 00:22:59;;;;;;;18.90;17.20;;;;;;;;;;4970041;28;20488;-85
2023/01/24 00:25:25;;;;;;;20.50;18.50;;;;;;;;;;4984996;28;20433;-85
2023/01/24 00:27:51;;;;;;;17.90;16.15;;;;;;;;;;4968045;28;20424;-85
2023/01/24 00:30:17;;;;;;;18.33;16.58;;;;;;;;;;4972731;28;20431;-79
2023/01/24 00:32:43;;;;;;;16.23;14.65;;;;;;;;;;4961575;28;20451;-79
2023/01/24 00:35:09;;;;;;;16.40;14.85;;;;;;;;;;4975829;28;20428;-80
2023/01/24 00:37:36;;;;;;;16.88;15.25;;;;;;;;;;4975544;28;20453;-79
2023/01/24 00:40:02;;;;;;;16.90;15.30;;;;;;;;;;4983241;28;20459;-80
2023/01/24 00:42:28;;;;;;;17.10;15.40;;;;;;;;;;4986553;28;20454;-79
2023/01/24 00:44:54;;;;;;;17.05;15.45;;;;;;;;;;4992458;28;20432;-80
2023/01/24 00:47:20;;;;;;;16.00;14.50;;;;;;;;;;4990949;28;20513;-85
2023/01/24 00:49:46;;;;;;;16.70;15.10;;;;;;;;;;4982777;28;20467;-85
2023/01/24 00:52:12;;;;;;;16.42;14.82;;;;;;;;;;4979183;28;20440;-85
2023/01/24 00:54:38;;;;;;;17.38;15.68;;;;;;;;;;4979522;28;20480;-84
2023/01/24 00:57:04;;;;;;;17.40;15.70;;;;;;;;;;4982527;28;20420;-84
2023/01/24 00:59:30;;;;;;;17.67;15.98;;;;;;;;;;4975049;28;20418;-85
2023/01/24 01:01:56;;;;;;;17.80;16.10;;;;;;;;;;4979046;28;20428;-85
2023/01/24 01:04:22;;;;;;;18.38;16.58;;;;;;;;;;4984509;28;20510;-80
2023/01/24 01:06:48;;;;;;;17.80;16.08;;;;;;;;;;4974750;28;20421;-80
2023/01/24 01:09:14;;;;;;;18.08;16.38;;;;;;;;;;4998714;28;20463;-80
2023/01/24 01:11:41;;;;;;;18.08;16.27;;;;;;;;;;4982106;28;20447;-80
2023/01/24 01:14:07;;;;;;;18.50;16.70;;;;;;;;;;4998641;28;20486;-80
2023/01/24 01:16:37;;;;;;;18.55;16.75;;;;;;;;;;4981892;28;20407;-80
2023/01/24 01:19:04;;;;;;;18.25;16.48;;;;;;;;;;4997575;28;20422;-79
2023/01/24 01:21:30;;;;;;;18.92;17.05;;;;;;;;;;4982196;28;20423;-80
2023/01/24 01:23:56;;;;;;;18.80;16.90;;;;;;;;;;4987852;28;20440;-80
2023/01/24 01:26:22;;;;;;;19.08;17.17;;;;;;;;;;4997903;28;20422;-79
2023/01/24 01:28:49;;;;;;;20.00;17.90;;;;;;;;;;4982543;28;20411;-80
2023/01/24 01:31:15;;;;;;;18.70;16.70;;;;;;;;;;4998797;28;20227;-80
2023/01/24 01:33:42;;;;;;;19.63;17.73;;;;;;;;;;4974135;28;20416;-79
2023/01/24 01:36:08;;;;;;;19.88;17.88;;;;;;;;;;5000498;28;20430;-84
2023/01/24 01:38:34;;;;;;;20.50;18.50;;;;;;;;;;4979285;28;20408;-84
2023/01/24 01:41:00;;;;;;;20.35;18.35;;;;;;;;;;4962616;28;20419;-84
2023/01/24 01:43:28;;;;;;;18.00;15.50;;;;;;;;;;4996073;28;20181;-84
2023/01/24 01:45:58;;;;;;;20.48;18.38;;;;;;;;;;4995789;28;20418;-84
2023/01/24 01:48:24;;;;;;;20.33;18.23;;;;;;;;;;4978342;28;20420;-84
2023/01/24 01:50:56;;;;;;;20.00;15.70;;;;;;;;;;4981589;28;20185;-84
2023/01/24 01:53:23;;;;;;;18.03;15.13;;;;;;;;;;4998923;28;20182;-80
2023/01/24 01:55:52;;;;;;;17.80;14.43;;;;;;;;;;4996681;28;20967;-80
2023/01/24 01:58:18;;;;;;;19.23;17.13;;;;;;;;;;4983648;28;20416;-80
2023/01/24 02:00:49;;;;;;;19.70;17.60;;;;;;;;;;4981497;28;20498;-80
2023/01/24 02:06:01;;;;;;;21.42;19.33;;;;;;;;;;5008293;28;20418;-80
2023/01/24 02:08:28;;;;;;;21.05;18.88;;;;;;;;;;4980176;28;20424;-80
2023/01/24 02:13:44;;;;;;;18.90;16.00;;;;;;;;;;4996358;28;20192;-79
2023/01/24 02:16:11;;;;;;;19.93;15.97;;;;;;;;;;4979411;28;20273;-80
2023/01/24 02:18:38;;;;;;;18.87;15.90;;;;;;;;;;4998021;28;20251;-79
2023/01/24 02:21:07;;;;;;;21.30;16.73;;;;;;;;;;4993893;28;20197;-79
2023/01/24 02:23:36;;;;;;;21.27;16.63;;;;;;;;;;4994360;28;20182;-79
2023/01/24 02:26:15;;;;;;;19.50;16.20;;;;;;;;;;4988970;28;20282;-84
2023/01/24 02:28:45;;;;;;;19.37;16.73;;;;;;;;;;4978011;28;20186;-84
2023/01/24 02:31:11;;;;;;;19.87;16.47;;;;;;;;;;4987653;28;20209;-83
2023/01/24 02:33:37;;;;;;;20.10;16.83;;;;;;;;;;4967345;28;20189;-83
2023/01/24 02:36:06;;;;;;;24.15;21.55;;;;;;;;;;4976087;28;20437;-83
2023/01/24 02:38:32;;;;;;;24.70;22.10;;;;;;;;;;5002576;28;20504;-84
2023/01/24 02:41:06;;;;;;;24.80;22.30;;;;;;;;;;4969019;28;20482;-83
2023/01/24 02:43:41;;;;;;;24.83;22.33;;;;;;;;;;4978988;28;20440;-80
2023/01/24 02:46:07;;;;;;;24.33;21.83;;;;;;;;;;4984130;28;20452;-79
2023/01/24 02:48:33;;;;;;;25.17;22.67;;;;;;;;;;4978580;28;20458;-80
2023/01/24 02:53:44;;;;;;;24.90;22.40;;;;;;;;;;4982291;28;20457;-81
2023/01/24 02:58:55;;;;;;;25.45;22.95;;;;;;;;;;4998613;28;20427;-80
2023/01/24 03:01:21;;;;;;;25.80;23.15;;;;;;;;;;4983672;28;20422;-83
2023/01/24 03:03:48;;;;;;;26.17;23.58;;;;;;;;;;4994438;28;20518;-83
2023/01/24 03:06:14;;;;;;;25.20;22.70;;;;;;;;;;4976882;28;20527;-83
2023/01/24 03:08:40;;;;;;;25.70;23.10;;;;;;;;;;4972802;28;20475;-84
2023/01/24 03:11:07;;;;;;;26.57;23.97;;;;;;;;;;5008415;28;20519;-84
2023/01/24 03:35:32;;;;;;;26.15;23.55;;;;;;;;;;5001330;28;20466;-85
2023/01/24 03:40:43;;;;;;;27.60;24.80;;;;;;;;;;4994236;28;20552;-86
2023/01/24 03:43:09;;;;;;;26.80;24.05;;;;;;;;;;4961040;28;20420;-85
2023/01/24 03:45:36;;;;;;;28.52;25.63;;;;;;;;;;4994038;28;20420;-85
2023/01/24 03:48:03;;;;;;;28.60;25.70;;;;;;;;;;4993344;28;20502;-86
2023/01/24 03:53:17;;;;;;;28.77;25.88;;;;;;;;;;4993751;28;20531;-85
2023/01/24 03:55:43;;;;;;;28.85;25.95;;;;;;;;;;4976542;28;20463;-86
2023/01/24 03:58:09;;;;;;;30.48;27.45;;;;;;;;;;4968085;28;20423;-86
2023/01/24 04:00:35;;;;;;;29.88;26.88;;;;;;;;;;4987250;28;20411;-86
2023/01/24 04:03:01;;;;;;;29.23;26.42;;;;;;;;;;4987065;28;20426;-86
2023/01/24 04:05:28;;;;;;;29.50;26.60;;;;;;;;;;4973236;28;20489;-85
2023/01/24 04:07:54;;;;;;;29.90;26.98;;;;;;;;;;5007954;28;20458;-83
2023/01/24 04:10:21;;;;;;;30.05;27.05;;;;;;;;;;4995791;28;20407;-82
2023/01/24 04:12:47;;;;;;;29.95;26.95;;;;;;;;;;4982673;28;20432;-81
2023/01/24 04:15:18;;;;;;;29.40;26.50;;;;;;;;;;4993564;28;20421;-82
2023/01/24 04:17:44;;;;;;;30.83;27.67;;;;;;;;;;4990100;28;20499;-83
2023/01/24 04:20:10;;;;;;;29.20;26.25;;;;;;;;;;4994721;28;20417;-82
2023/01/24 04:22:36;;;;;;;29.10;26.10;;;;;;;;;;4987028;28;20438;-78
2023/01/24 04:25:02;;;;;;;30.25;27.25;;;;;;;;;;4979685;28;20455;-78
2023/01/24 04:27:28;;;;;;;29.42;26.45;;;;;;;;;;4980258;28;20420;-78
2023/01/24 04:29:54;;;;;;;29.77;26.80;;;;;;;;;;5011529;28;20554;-78
2023/01/24 04:32:20;;;;;;;30.00;27.00;;;;;;;;;;4982963;28;20446;-78
2023/01/24 04:34:46;;;;;;;29.88;26.88;;;;;;;;;;4986198;28;20416;-78
2023/01/24 04:37:13;;;;;;;30.43;27.33;;;;;;;;;;5002256;28;20415;-78
2023/01/24 04:39:39;;;;;;;31.52;28.27;;;;;;;;;;4982728;28;20434;-82
2023/01/24 04:42:05;;;;;;;30.42;27.42;;;;;;;;;;4979243;28;20420;-83
2023/01/24 04:44:32;;;;;;;30.48;27.42;;;;;;;;;;4982058;28;20518;-83
2023/01/24 04:46:58;;;;;;;31.20;28.10;;;;;;;;;;4979267;28;20432;-83
2023/01/24 04:49:24;;;;;;;30.30;27.30;;;;;;;;;;4986811;28;20509;-83
2023/01/24 04:51:50;;;;;;;31.33;28.13;;;;;;;;;;4982148;28;20445;-82
2023/01/24 04:54:17;;;;;;;31.05;27.85;;;;;;;;;;4989994;28;20435;-83
2023/01/24 04:56:43;;;;;;;31.20;28.10;;;;;;;;;;4984864;28;20454;-78
2023/01/24 04:59:13;;;;;;;31.55;28.42;;;;;;;;;;4978867;28;20420;-78
2023/01/24 05:01:39;;;;;;;32.72;29.42;;;;;;;;;;4979148;28;20439;-78
2023/01/24 05:04:05;;;;;;;32.75;29.42;;;;;;;;;;4979056;28;20468;-78
2023/01/24 05:06:32;;;;;;;33.50;30.08;;;;;;;;;;4973095;28;20428;-78
2023/01/24 05:08:58;;;;;;;32.35;29.13;;;;;;;;;;4965338;28;20425;-78
2023/01/24 05:11:25;;;;;;;33.50;30.10;;;;;;;;;;4998499;28;20451;-78
2023/01/24 05:13:51;;;;;;;33.53;30.15;;;;;;;;;;4993061;28;20478;-78
2023/01/24 05:16:17;;;;;;;34.00;30.60;;;;;;;;;;4994865;28;20499;-78
2023/01/24 05:18:43;;;;;;;34.97;31.48;;;;;;;;;;4963199;28;20440;-78
2023/01/24 05:21:12;;;;;;;34.67;31.23;;;;;;;;;;4981424;28;20419;-78
2023/01/24 05:23:37;;;;;;;34.30;30.70;;;;;;;;;;4998191;28;20415;-78
2023/01/24 05:26:04;;;;;;;33.70;30.33;;;;;;;;;;4979730;28;20720;-78
2023/01/24 05:28:30;;;;;;;34.47;30.88;;;;;;;;;;4998387;28;20453;-78
2023/01/24 05:31:00;;;;;;;33.15;29.85;;;;;;;;;;4978927;28;20436;-82
2023/01/24 05:33:26;;;;;;;31.80;28.33;;;;;;;;;;4979047;28;20460;-83
2023/01/24 05:36:07;;;;;;;32.90;29.40;;;;;;;;;;4992462;28;20419;-83
2023/01/24 05:38:33;;;;;;;33.10;29.67;;;;;;;;;;4978230;28;20409;-78
2023/01/24 05:41:07;;;;;;;33.22;29.83;;;;;;;;;;4992486;28;20419;-78
2023/01/24 05:43:33;;;;;;;33.47;30.05;;;;;;;;;;4987208;28;20413;-78
2023/01/24 05:46:00;;;;;;;33.38;29.98;;;;;;;;;;4996950;28;20419;-77
2023/01/24 05:48:26;;;;;;;33.33;29.92;;;;;;;;;;4979616;28;20424;-83
2023/01/24 05:50:56;;;;;;;31.57;28.37;;;;;;;;;;4982560;28;20460;-83
2023/01/24 05:53:22;;;;;;;33.08;29.67;;;;;;;;;;5004092;28;20437;-83
2023/01/24 05:55:54;;;;;;;33.15;29.92;;;;;;;;;;4970850;28;20482;-83
2023/01/24 05:58:20;;;;;;;32.73;29.40;;;;;;;;;;4979514;28;20424;-84
2023/01/24 06:00:46;;;;;;;31.77;28.52;;;;;;;;;;4973744;28;20425;-83
2023/01/24 06:03:12;;;;;;;32.88;29.67;;;;;;;;;;4986528;28;20421;-82
2023/01/24 06:05:38;;;;;;;31.85;28.65;;;;;;;;;;5000515;28;20426;-82
2023/01/24 06:08:04;;;;;;;32.90;29.52;;;;;;;;;;4974443;28;20463;-82
2023/01/24 06:10:30;;;;;;;31.40;28.30;;;;;;;;;;4977202;28;20491;-82
2023/01/24 06:12:56;;;;;;;31.17;28.08;;;;;;;;;;4972971;28;20430;-82
2023/01/24 06:15:22;;;;;;;32.03;28.80;;;;;;;;;;4978006;28;20474;-82
2023/01/24 06:17:48;;;;;;;31.48;28.27;;;;;;;;;;4977399;28;20421;-82
2023/01/24 06:20:14;;;;;;;31.63;28.37;;;;;;;;;;4977907;28;20672;-78
2023/01/24 06:22:51;;;;;;;32.00;28.70;;;;;;;;;;4981315;28;20493;-78
2023/01/24 06:25:20;;;;;;;31.88;28.60;;;;;;;;;;4994892;28;20413;-78
2023/01/24 06:27:47;;;;;;;32.22;28.85;;;;;;;;;;4978350;28;20420;-78
2023/01/24 06:30:13;;;;;;;28.43;24.10;;;;;;;;;;4982481;28;20260;-78
2023/01/24 06:33:02;;;;;;;30.20;25.30;;;;;;;;;;4985190;28;20201;-78
2023/01/24 06:35:28;;;;;;;32.72;29.42;;;;;;;;;;4986550;28;20422;-78
2023/01/24 06:37:54;;;;;;;29.40;25.33;;;;;;;;;;4984347;28;20191;-84
2023/01/24 06:40:22;;;;;;;30.33;24.20;;;;;;;;;;4975878;28;20236;-83
2023/01/24 06:42:49;;;;;;;29.50;24.23;;;;;;;;;;4976600;28;20182;-84
2023/01/24 06:45:15;;;;;;;31.10;23.77;;;;;;;;;;4961718;28;20262;-84
2023/01/24 06:47:42;;;;;;;29.40;24.03;;;;;;;;;;4979824;28;20190;-83
2023/01/24 06:50:12;;;;;;;29.37;23.23;;;;;;;;;;4979735;28;20214;-83
2023/01/24 06:52:38;;;;;;;30.47;24.50;;;;;;;;;;4996276;28;20213;-78
2023/01/24 06:55:04;;;;;;;31.33;25.33;;;;;;;;;;4981323;28;20185;-78
2023/01/24 06:57:30;;;;;;;29.53;24.07;;;;;;;;;;4979463;28;20185;-78
2023/01/24 06:59:56;;;;;;;30.47;25.20;;;;;;;;;;4962047;28;20182;-78
2023/01/24 07:02:22;;;;;;;34.03;30.33;;;;;;;;;;4972581;28;20467;-78
2023/01/24 07:04:48;;;;;;;33.60;27.60;;;;;;;;;;4968263;28;20473;-78
2023/01/24 07:07:14;;;;;;;34.25;30.80;;;;;;;;;;4965870;28;20436;-81
2023/01/24 07:09:40;;;;;;;34.95;31.40;;;;;;;;;;4995763;28;20407;-78
2023/01/24 07:12:06;;;;;;;31.07;26.00;;;;;;;;;;4980664;28;20205;-79
2023/01/24 07:14:32;;;;;;;33.78;30.08;;;;;;;;;;4993110;28;20420;-78
2023/01/24 07:16:59;;;;;;;31.70;25.90;;;;;;;;;;4980881;28;20181;-78
2023/01/24 07:19:25;;;;;;;33.25;27.15;;;;;;;;;;4996639;28;20418;-78
2023/01/24 07:21:53;;;;;;;31.60;25.90;;;;;;;;;;4972615;28;20193;-78
2023/01/24 07:24:20;;;;;;;34.87;26.53;;;;;;;;;;4967049;28;20194;-78
2023/01/24 07:26:50;;;;;;;31.80;25.67;;;;;;;;;;4984433;28;20185;-82
2023/01/24 07:29:17;;;;;;;30.03;25.20;;;;;;;;;;4991839;28;20177;-83
2023/01/24 07:31:43;;;;;;;30.43;25.33;;;;;;;;;;4977325;28;20305;-83
2023/01/24 07:34:09;;;;;;;30.92;25.50;;;;;;;;;;4977783;28;20456;-82
2023/01/24 07:36:35;;;;;;;34.78;31.20;;;;;;;;;;4980223;28;20519;-82
2023/01/24 07:39:01;;;;;;;31.30;26.40;;;;;;;;;;4970128;28;20258;-82
2023/01/24 07:41:27;;;;;;;32.80;25.80;;;;;;;;;;4965512;28;20174;-83
2023/01/24 07:43:54;;;;;;;30.97;24.87;;;;;;;;;;4977396;28;20245;-78
2023/01/24 07:46:20;;;;;;;31.17;25.23;;;;;;;;;;4996884;28;20182;-78
2023/01/24 07:48:46;;;;;;;31.60;25.10;;;;;;;;;;4961354;28;20206;-78
2023/01/24 07:51:12;;;;;;;31.73;25.80;;;;;;;;;;4975562;28;20189;-78
2023/01/24 07:53:38;;;;;;;31.93;25.40;;;;;;;;;;4980937;28;20181;-78
2023/01/24 07:56:04;;;;;;;31.53;24.40;;;;;;;;;;4991032;28;20245;-78
2023/01/24 07:58:30;;;;;;;33.10;26.20;;;;;;;;;;4977323;28;20264;-78
2023/01/24 08:00:57;;;;;;;32.23;26.47;;;;;;;;;;4963119;28;20193;-78
2023/01/24 08:03:23;;;;;;;30.33;25.00;;;;;;;;;;4987105;28;20185;-78
2023/01/24 08:05:49;;;;;;;32.83;29.13;;;;;;;;;;4991687;28;20519;-78
2023/01/24 08:08:15;;;;;;;34.50;30.80;;;;;;;;;;4980214;28;20444;-79
2023/01/24 08:10:40;;;;;;;30.60;26.23;;;;;;;;;;4975364;28;20211;-78
2023/01/24 08:13:06;;;;;;;34.05;30.45;;;;;;;;;;4977799;28;20425;-79
2023/01/24 08:15:32;;;;;;;29.73;25.47;;;;;;;;;;4962776;28;20181;-79
2023/01/24 08:18:01;;;;;;;31.88;27.98;;;;;;;;;;4977013;28;20428;-83
2023/01/24 08:20:29;;;;;;;32.10;28.67;;;;;;;;;;4976655;28;20491;-84
2023/01/24 08:22:57;;;;;;;34.58;31.08;;;;;;;;;;4990817;28;20441;-84
2023/01/24 08:25:23;;;;;;;34.15;30.65;;;;;;;;;;4978637;28;20419;-84
2023/01/24 08:27:49;;;;;;;33.58;30.08;;;;;;;;;;4983158;28;20481;-83
2023/01/24 08:30:15;;;;;;;34.20;30.75;;;;;;;;;;4981745;28;20417;-83
2023/01/24 08:32:42;;;;;;;35.63;32.03;;;;;;;;;;4986298;28;20509;-78
2023/01/24 08:35:08;;;;;;;35.05;31.55;;;;;;;;;;5013544;28;20488;-78
2023/01/24 08:37:34;;;;;;;34.37;30.80;;;;;;;;;;4976895;28;20415;-78
2023/01/24 08:40:00;;;;;;;30.93;26.70;;;;;;;;;;4966297;28;20177;-78
2023/01/24 08:42:26;;;;;;;30.07;25.33;;;;;;;;;;4978664;28;20302;-78
2023/01/24 08:44:52;;;;;;;29.33;24.90;;;;;;;;;;4979928;28;20236;-78
2023/01/24 08:47:18;;;;;;;32.63;25.90;;;;;;;;;;4981874;28;20190;-78
2023/01/24 08:49:44;;;;;;;28.60;23.83;;;;;;;;;;4976343;28;20186;-78
2023/01/24 08:52:10;;;;;;;27.17;23.27;;;;;;;;;;4965285;28;20228;-78
2023/01/24 08:54:38;;;;;;;32.72;29.42;;;;;;;;;;4975322;28;20456;-78
2023/01/24 08:57:06;;;;;;;29.87;25.43;;;;;;;;;;4976660;28;20194;-78
2023/01/24 08:59:32;;;;;;;30.53;24.70;;;;;;;;;;4981086;28;20207;-78
2023/01/24 09:01:58;;;;;;;28.50;24.00;;;;;;;;;;4976924;28;20181;-79
2023/01/24 09:04:26;;;;;;;28.17;23.33;;;;;;;;;;4994921;28;20225;-78
2023/01/24 09:06:52;;;;;;;29.20;24.00;;;;;;;;;;4989237;28;20178;-78
2023/01/24 09:09:18;;;;;;;29.43;24.33;;;;;;;;;;4974644;28;20202;-78
2023/01/24 09:11:45;;;;;;;30.70;25.03;;;;;;;;;;4988405;28;20205;-78
2023/01/24 09:14:11;;;;;;;30.03;23.57;;;;;;;;;;4988335;28;20181;-78
2023/01/24 09:16:37;;;;;;;30.10;24.80;;;;;;;;;;4981237;28;20192;-78
2023/01/24 09:19:03;;;;;;;30.47;24.83;;;;;;;;;;4999285;23;20260;-82
2023/01/24 09:21:29;;;;;;;30.27;24.87;;;;;;;;;;4979925;28;20181;-83
2023/01/24 09:23:55;;;;;;;31.50;24.97;;;;;;;;;;4979803;28;20233;-82
2023/01/24 09:26:21;;;;;;;33.20;29.80;;;;;;;;;;4979124;28;20424;-82
2023/01/24 09:28:47;;;;;;;32.47;28.97;;;;;;;;;;4983890;28;20576;-82
2023/01/24 09:31:14;;;;;;;29.60;25.07;;;;;;;;;;4959850;28;20186;-82
2023/01/24 09:33:40;;;;;;;32.78;29.33;;;;;;;;;;4973521;28;20519;-82
2023/01/24 09:36:06;;;;;;;30.33;27.02;;;;;;;;;;4970198;28;20437;-82
2023/01/24 09:38:33;;;;;;;29.10;24.93;;;;;;;;;;4957407;28;20213;-82
2023/01/24 09:41:15;;;;;;;28.20;23.97;;;;;;;;;;4960722;28;20261;-83
2023/01/24 09:43:56;;;;;;;32.60;25.60;;;;;;;;;;4982311;28;20174;-83
2023/01/24 09:46:29;;;;;;;30.27;24.57;;;;;;;;;;4968501;28;20217;-83
2023/01/24 09:48:59;;;;;;;29.00;24.07;;;;;;;;;;4974462;28;20188;-83
2023/01/24 09:51:26;;;;;;;28.80;24.27;;;;;;;;;;4966743;28;20199;-82
2023/01/24 09:53:54;;;;;;;30.83;27.58;;;;;;;;;;4974214;28;20461;-82
2023/01/24 09:56:26;;;;;;;32.47;29.15;;;;;;;;;;4965853;28;20445;-82
2023/01/24 09:58:56;;;;;;;32.53;29.33;;;;;;;;;;4959147;28;20449;-82
2023/01/24 10:01:22;;;;;;;32.63;29.25;;;;;;;;;;4960518;28;20426;-82
2023/01/24 10:03:48;;;;;;;31.38;28.23;;;;;;;;;;4960478;28;20455;-82
2023/01/24 10:06:16;;;;;;;32.10;29.00;;;;;;;;;;4958394;28;20487;-82
2023/01/24 10:08:53;;;;;;;29.75;26.65;;;;;;;;;;4959264;28;20521;-82
2023/01/24 10:11:33;;;;;;;27.20;24.03;;;;;;;;;;4976222;28;20232;-82
2023/01/24 10:14:17;;;;;;;28.73;25.83;;;;;;;;;;4970019;28;20555;-82
2023/01/24 10:16:53;;;;;;;30.08;27.17;;;;;;;;;;4960883;28;20418;-83
2023/01/24 10:19:25;;;;;;;29.73;26.73;;;;;;;;;;4970913;28;20441;-82
2023/01/24 10:21:54;;;;;;;29.92;26.92;;;;;;;;;;4994802;28;20412;-82
2023/01/24 10:24:25;;;;;;;31.08;27.98;;;;;;;;;;4974838;28;20436;-82
2023/01/24 10:26:52;;;;;;;29.83;26.83;;;;;;;;;;4959009;28;20561;-83
2023/01/24 10:29:18;;;;;;;29.05;26.10;;;;;;;;;;4946403;28;20435;-90
2023/01/24 10:32:04;;;;;;;28.58;25.77;;;;;;;;;;4977702;28;20516;-91
2023/01/24 10:34:42;;;;;;;28.60;25.80;;;;;;;;;;4966435;28;20422;-90
2023/01/24 10:37:11;;;;;;;27.85;25.05;;;;;;;;;;4980474;28;20431;-89
2023/01/24 10:39:37;;;;;;;28.88;26.08;;;;;;;;;;4995898;28;20516;-90
2023/01/24 10:42:15;;;;;;;28.83;25.97;;;;;;;;;;4978341;28;20412;-90
2023/01/24 10:44:42;;;;;;;28.70;25.98;;;;;;;;;;4968685;28;20479;-90
2023/01/24 10:47:14;;;;;;;28.00;25.30;;;;;;;;;;4977699;28;20455;-82
2023/01/24 10:49:42;;;;;;;23.13;20.63;;;;;;;;;;4970922;28;20240;-83
2023/01/24 10:52:09;;;;;;;25.53;22.87;;;;;;;;;;4978063;28;20429;-83
2023/01/24 10:55:05;;;;;;;27.60;24.80;;;;;;;;;;4969453;28;20508;-83
2023/01/24 10:57:48;;;;;;;27.38;24.67;;;;;;;;;;4954133;28;20445;-82
2023/01/24 11:00:26;;;;;;;25.90;21.10;;;;;;;;;;4965513;28;20175;-82
2023/01/24 11:02:57;;;;;;;26.92;24.25;;;;;;;;;;4972786;28;20428;-82
2023/01/24 11:05:23;;;;;;;26.67;24.08;;;;;;;;;;4973613;28;20457;-83
2023/01/24 11:07:55;;;;;;;25.37;22.87;;;;;;;;;;4961496;28;20428;-83
2023/01/24 11:10:22;;;;;;;26.70;24.08;;;;;;;;;;4971665;28;20501;-83
2023/01/24 11:12:55;;;;;;;26.15;23.65;;;;;;;;;;4960757;28;20456;-82
2023/01/24 11:15:23;;;;;;;25.60;23.20;;;;;;;;;;4968240;28;20415;-83
2023/01/24 11:17:53;;;;;;;25.27;22.87;;;;;;;;;;4994301;28;20401;-83
2023/01/24 11:20:22;;;;;;;25.60;23.20;;;;;;;;;;4969410;28;20427;-82
2023/01/24 11:22:50;;;;;;;25.42;23.02;;;;;;;;;;4957950;28;20410;-82
2023/01/24 11:25:16;;;;;;;23.48;21.25;;;;;;;;;;4958254;28;20453;-82
2023/01/24 11:27:49;;;;;;;24.23;21.83;;;;;;;;;;4969499;28;20502;-82
2023/01/24 11:30:16;;;;;;;23.73;21.42;;;;;;;;;;4963365;28;20481;-82
2023/01/24 11:32:42;;;;;;;23.65;21.35;;;;;;;;;;4974299;28;20481;-82
2023/01/24 11:35:09;;;;;;;24.67;22.38;;;;;;;;;;4977460;28;20437;-82
2023/01/24 11:37:53;;;;;;;23.35;21.15;;;;;;;;;;4963142;28;20409;-79
2023/01/24 11:40:30;;;;;;;23.27;21.08;;;;;;;;;;4963799;28;20425;-79
2023/01/24 11:43:05;;;;;;;23.35;21.10;;;;;;;;;;4965825;28;20425;-79
2023/01/24 11:45:34;;;;;;;22.83;20.63;;;;;;;;;;4976075;28;20423;-79
2023/01/24 11:48:00;;;;;;;22.48;20.30;;;;;;;;;;4976491;28;20424;-80
2023/01/24 11:50:30;;;;;;;22.45;20.25;;;;;;;;;;4989347;28;20416;-79
2023/01/24 11:53:22;;;;;;;22.63;20.33;;;;;;;;;;4958789;28;20512;-79
2023/01/24 11:55:55;;;;;;;21.63;19.53;;;;;;;;;;4964213;28;20488;-79
2023/01/24 11:58:30;;;;;;;22.58;20.38;;;;;;;;;;4965410;28;20448;-79
2023/01/24 12:00:56;;;;;;;21.80;19.70;;;;;;;;;;4974135;28;20444;-79
2023/01/24 12:03:40;;;;;;;21.52;19.52;;;;;;;;;;4974426;28;20430;-79
2023/01/24 12:06:13;;;;;;;22.70;20.60;;;;;;;;;;4973090;28;20417;-79
2023/01/24 12:08:42;;;;;;;21.77;19.63;;;;;;;;;;4978514;28;20480;-79
2023/01/24 12:11:20;;;;;;;20.63;18.70;;;;;;;;;;4979818;28;20519;-82
2023/01/24 12:14:10;;;;;;;20.58;18.50;;;;;;;;;;4977092;28;20479;-82
2023/01/24 12:16:36;;;;;;;22.13;20.02;;;;;;;;;;4957311;28;20422;-82
2023/01/24 12:19:06;;;;;;;20.27;18.27;;;;;;;;;;4957222;28;20430;-82
2023/01/24 12:21:33;;;;;;;21.27;19.17;;;;;;;;;;4990317;28;20420;-82
2023/01/24 12:24:22;;;;;;;20.58;18.63;;;;;;;;;;4976229;28;20417;-82
2023/01/24 12:26:50;;;;;;;18.37;15.53;;;;;;;;;;4992340;28;20236;-82
2023/01/24 12:29:28;;;;;;;19.07;15.93;;;;;;;;;;4965038;28;20182;-82
2023/01/24 12:32:26;;;;;;;18.23;16.30;;;;;;;;;;4992106;28;20434;-82
2023/01/24 12:35:04;;;;;;;21.67;19.67;;;;;;;;;;4937210;28;20420;-82
2023/01/24 12:37:33;;;;;;;20.63;18.65;;;;;;;;;;4975630;28;20424;-82
2023/01/24 12:40:03;;;;;;;20.43;18.53;;;;;;;;;;4974176;28;20416;-82
2023/01/24 12:42:40;;;;;;;19.98;18.08;;;;;;;;;;4969407;28;20471;-91
2023/01/24 12:45:12;;;;;;;17.50;15.70;;;;;;;;;;4970489;28;20224;-90
2023/01/24 12:47:42;;;;;;;16.83;15.03;;;;;;;;;;4982832;28;20193;-90
2023/01/24 12:50:09;;;;;;;16.80;15.00;;;;;;;;;;4979750;28;20186;-90
2023/01/24 12:52:53;;;;;;;19.40;17.50;;;;;;;;;;4974273;28;20441;-90
2023/01/24 12:55:22;;;;;;;20.08;18.15;;;;;;;;;;4963860;28;20418;-90
2023/01/24 12:57:54;;;;;;;20.23;18.33;;;;;;;;;;4974141;28;20437;-89
2023/01/24 13:00:22;;;;;;;17.27;15.47;;;;;;;;;;4972327;28;20209;-82
2023/01/24 13:02:48;;;;;;;19.10;17.30;;;;;;;;;;4977751;28;20422;-82
2023/01/24 13:05:30;;;;;;;18.45;16.65;;;;;;;;;;4965334;28;20567;-82
2023/01/24 13:08:06;;;;;;;19.10;17.30;;;;;;;;;;4963547;28;20461;-82
2023/01/24 13:10:41;;;;;;;19.73;17.92;;;;;;;;;;4988329;28;20423;-82
2023/01/24 13:13:17;;;;;;;19.45;17.60;;;;;;;;;;4971291;28;20532;-82
2023/01/24 13:15:57;;;;;;;19.80;17.90;;;;;;;;;;4971055;28;20478;-82
2023/01/24 13:18:44;;;;;;;19.10;17.30;;;;;;;;;;4979758;28;20426;-79
2023/01/24 13:21:24;;;;;;;18.95;17.08;;;;;;;;;;4962610;28;20425;-79
2023/01/24 13:23:59;;;;;;;19.40;17.58;;;;;;;;;;4976740;28;20410;-80
2023/01/24 13:26:28;;;;;;;18.50;16.70;;;;;;;;;;4959865;28;20422;-78
2023/01/24 13:29:13;;;;;;;18.42;16.73;;;;;;;;;;4995237;28;20459;-79
2023/01/24 13:31:58;;;;;;;19.75;17.85;;;;;;;;;;4962290;28;20414;-79
2023/01/24 13:34:28;;;;;;;19.63;17.83;;;;;;;;;;4960308;28;20464;-89
2023/01/24 13:36:54;;;;;;;19.42;17.63;;;;;;;;;;4960898;28;20411;-90
2023/01/24 13:39:40;;;;;;;19.48;17.67;;;;;;;;;;4961318;28;20434;-89
2023/01/24 13:42:19;;;;;;;19.38;17.58;;;;;;;;;;4980173;28;20467;-89
2023/01/24 13:44:46;;;;;;;19.27;17.48;;;;;;;;;;4973984;28;20429;-90
2023/01/24 13:47:17;;;;;;;20.05;18.23;;;;;;;;;;4960498;28;20429;-90
2023/01/24 13:49:55;;;;;;;17.50;15.70;;;;;;;;;;4978257;28;20225;-83
2023/01/24 13:52:34;;;;;;;19.10;17.17;;;;;;;;;;4959829;28;20521;-83
2023/01/24 13:55:00;;;;;;;19.47;17.57;;;;;;;;;;4959029;28;20421;-82
2023/01/24 13:57:30;;;;;;;19.90;18.07;;;;;;;;;;4959028;28;20411;-82
2023/01/24 14:00:09;;;;;;;20.65;18.70;;;;;;;;;;4958894;28;20410;-82
2023/01/24 14:02:39;;;;;;;19.67;17.73;;;;;;;;;;4959657;28;20434;-82
2023/01/24 14:05:25;;;;;;;19.35;17.55;;;;;;;;;;4974753;28;20479;-83
2023/01/24 14:07:51;;;;;;;20.83;18.83;;;;;;;;;;4972516;28;20504;-90
2023/01/24 14:10:17;;;;;;;20.30;18.45;;;;;;;;;;4987965;28;20505;-90
2023/01/24 14:12:53;;;;;;;20.02;18.17;;;;;;;;;;4963733;28;20521;-90
2023/01/24 14:15:22;;;;;;;20.30;18.40;;;;;;;;;;4959775;28;20410;-89
2023/01/24 14:17:49;;;;;;;19.95;18.10;;;;;;;;;;4977666;28;20424;-90
2023/01/24 14:20:35;;;;;;;19.83;18.00;;;;;;;;;;4977980;28;20432;-89
2023/01/24 14:23:03;;;;;;;17.70;16.00;;;;;;;;;;4975262;28;20264;-91
2023/01/24 14:25:43;;;;;;;18.15;16.33;;;;;;;;;;4960678;28;20449;-90
2023/01/24 14:28:17;;;;;;;19.00;17.20;;;;;;;;;;4963552;28;20430;-90
2023/01/24 14:30:46;;;;;;;16.10;14.50;;;;;;;;;;4975062;28;20189;-89
2023/01/24 14:33:18;;;;;;;18.77;16.87;;;;;;;;;;4979812;28;20428;-89
2023/01/24 14:36:03;;;;;;;17.37;15.50;;;;;;;;;;4972858;28;20426;-89
2023/01/24 14:38:30;;;;;;;18.70;16.92;;;;;;;;;;4980486;28;20521;-90
2023/01/24 14:40:56;;;;;;;19.50;17.63;;;;;;;;;;4958077;28;20520;-82
2023/01/24 14:43:24;;;;;;;18.73;17.00;;;;;;;;;;4962954;28;20568;-83
2023/01/24 14:45:50;;;;;;;19.58;17.67;;;;;;;;;;4975102;28;20429;-82
2023/01/24 14:48:23;;;;;;;18.75;16.95;;;;;;;;;;4958538;28;20442;-82
2023/01/24 14:50:59;;;;;;;19.40;17.60;;;;;;;;;;4973853;28;20422;-83
2023/01/24 14:53:30;;;;;;;18.25;16.55;;;;;;;;;;4958325;28;20525;-83
2023/01/24 14:56:00;;;;;;;18.80;17.00;;;;;;;;;;4961900;28;20418;-82
2023/01/24 14:58:27;;;;;;;18.17;16.50;;;;;;;;;;4989823;28;20435;-83
2023/01/24 15:00:55;;;;;;;19.60;16.33;;;;;;;;;;4977444;28;20487;-82
2023/01/24 15:03:23;;;;;;;18.53;16.77;;;;;;;;;;4965017;28;20462;-83
2023/01/24 15:06:16;;;;;;;17.42;15.73;;;;;;;;;;4968286;28;20439;-82